Time;durP1;ratioP1;P1;durP2;ratioP2;P2;SDS_P1;SDS_P2;PMS_P1;PMS_P2;Temp;Humidity;BMP_temperature;BMP_pressure;BME280_temperature;BME280_humidity;BME280_pressure;Samples;Min_cycle;Max_cycle;Signal;HPM_P1;HPM_P2
2021/10/08 00:01:48;;;;;;;5.90;3.92;;;;;;;17.05;61.21;101331.00;4977992;28;20040;-48
2021/10/08 00:04:15;;;;;;;4.13;1.95;;;;;;;17.04;60.78;101328.34;4977953;28;20465;-47
2021/10/08 00:06:42;;;;;;;3.53;2.70;;;;;;;17.02;60.93;101330.13;4980728;28;20043;-47
2021/10/08 00:09:09;;;;;;;4.82;2.55;;;;;;;17.01;61.00;101328.38;4976671;28;21479;-47
2021/10/08 00:11:35;;;;;;;4.53;3.33;;;;;;;16.99;60.80;101330.16;4979852;28;20051;-48
2021/10/08 00:14:02;;;;;;;7.13;3.60;;;;;;;16.98;61.33;101344.13;4978595;28;20062;-48
2021/10/08 00:16:29;;;;;;;4.15;2.85;;;;;;;16.95;61.30;101334.53;4972410;28;20050;-47
2021/10/08 00:18:56;;;;;;;8.52;3.72;;;;;;;16.94;60.84;101330.19;4976555;28;20128;-49
2021/10/08 00:21:22;;;;;;;3.63;2.70;;;;;;;16.93;61.19;101334.53;4982123;28;20113;-48
2021/10/08 00:23:50;;;;;;;4.05;2.63;;;;;;;16.91;61.25;101333.72;4976402;28;20058;-47
2021/10/08 00:26:18;;;;;;;4.28;2.65;;;;;;;16.89;61.03;101332.00;4987550;28;20050;-49
2021/10/08 00:28:44;;;;;;;7.60;4.18;;;;;;;16.86;61.06;101330.28;4987753;28;20050;-49
2021/10/08 00:31:11;;;;;;;3.13;2.47;;;;;;;16.84;61.56;101334.63;4982164;28;20046;-47
2021/10/08 00:33:37;;;;;;;4.57;2.67;;;;;;;16.81;61.11;101332.03;4989290;28;20050;-46
2021/10/08 00:36:04;;;;;;;4.65;3.05;;;;;;;16.79;61.30;101328.59;4982751;28;20109;-48
2021/10/08 00:38:31;;;;;;;6.18;3.45;;;;;;;16.78;61.50;101326.81;4982849;28;20738;-47
2021/10/08 00:40:57;;;;;;;5.68;3.03;;;;;;;16.75;61.25;101332.97;4978872;28;20122;-49
2021/10/08 00:43:24;;;;;;;3.55;1.58;;;;;;;16.75;61.03;101342.56;4984735;28;20397;-48
2021/10/08 00:45:51;;;;;;;5.60;2.85;;;;;;;16.73;61.11;101339.09;4970818;28;20046;-46
2021/10/08 00:48:18;;;;;;;5.55;3.28;;;;;;;16.69;61.04;101344.34;4970242;28;20109;-47
2021/10/08 00:50:47;;;;;;;5.20;3.03;;;;;;;16.68;61.55;101339.13;4980441;28;20054;-49
2021/10/08 00:53:14;;;;;;;3.05;2.42;;;;;;;16.66;61.56;101338.28;4967915;28;20533;-50
2021/10/08 00:55:45;;;;;;;4.20;1.95;;;;;;;16.62;61.41;101332.19;4989087;28;20422;-47
2021/10/08 00:58:14;;;;;;;3.65;2.78;;;;;;;16.62;60.98;101336.56;4984226;28;20053;-47
2021/10/08 01:00:43;;;;;;;6.13;3.38;;;;;;;16.60;61.22;101344.41;4983762;28;20047;-47
2021/10/08 01:03:10;;;;;;;3.10;2.65;;;;;;;16.58;60.94;101339.19;4981790;28;20079;-46
2021/10/08 01:05:39;;;;;;;5.43;3.28;;;;;;;16.58;61.75;101354.00;4974218;28;20118;-46
2021/10/08 01:08:06;;;;;;;5.00;3.13;;;;;;;16.57;61.58;101349.66;4972263;28;20039;-48
2021/10/08 01:10:33;;;;;;;4.63;3.05;;;;;;;16.56;61.38;101356.63;4983570;28;20065;-47
2021/10/08 01:13:01;;;;;;;4.93;2.95;;;;;;;16.54;61.53;101352.28;4969737;28;20105;-46
2021/10/08 01:15:27;;;;;;;3.92;2.67;;;;;;;16.53;61.00;101353.19;4987145;28;20046;-47
2021/10/08 01:17:54;;;;;;;6.35;4.32;;;;;;;16.53;61.35;101361.03;4984822;28;20050;-46
2021/10/08 01:20:22;;;;;;;3.30;2.55;;;;;;;16.51;60.95;101361.03;4979916;28;20054;-46
2021/10/08 01:22:49;;;;;;;4.70;2.67;;;;;;;16.51;61.07;101360.19;4986087;28;20101;-47
2021/10/08 01:25:16;;;;;;;3.15;1.80;;;;;;;16.48;61.07;101355.81;4989009;28;20435;-47
2021/10/08 01:27:43;;;;;;;4.75;2.80;;;;;;;16.49;61.33;101356.69;4985217;28;20046;-47
2021/10/08 01:30:10;;;;;;;6.72;2.70;;;;;;;16.47;61.44;101358.44;4970955;28;20050;-47
2021/10/08 01:32:37;;;;;;;3.13;2.33;;;;;;;16.45;61.72;101356.72;4985307;28;20105;-49
2021/10/08 01:35:04;;;;;;;3.53;2.30;;;;;;;16.42;61.54;101346.25;4985117;28;20387;-47
2021/10/08 01:37:31;;;;;;;4.32;2.60;;;;;;;16.42;61.63;101351.50;4955030;28;20395;-46
2021/10/08 01:39:58;;;;;;;5.35;3.45;;;;;;;16.41;61.40;101349.75;4965800;28;20078;-50
2021/10/08 01:42:24;;;;;;;4.65;2.92;;;;;;;16.39;61.06;101350.66;4968947;28;20046;-47
2021/10/08 01:44:51;;;;;;;3.40;2.90;;;;;;;16.37;61.12;101358.50;4971622;28;20443;-46
2021/10/08 01:47:18;;;;;;;3.35;2.35;;;;;;;16.34;61.11;101350.69;4981417;28;20102;-46
2021/10/08 01:49:44;;;;;;;4.70;2.80;;;;;;;16.32;60.90;101355.06;4983196;28;20054;-46
2021/10/08 01:52:11;;;;;;;2.88;1.70;;;;;;;16.30;61.31;101357.69;4984470;28;20706;-47
2021/10/08 01:54:37;;;;;;;5.63;2.90;;;;;;;16.28;60.74;101359.41;4983028;28;20050;-46
2021/10/08 01:57:04;;;;;;;3.72;2.67;;;;;;;16.26;61.47;101353.34;4985799;28;20549;-46
2021/10/08 01:59:30;;;;;;;4.90;2.38;;;;;;;16.23;61.41;101352.47;4982748;28;20058;-46
2021/10/08 02:01:57;;;;;;;3.17;2.40;;;;;;;16.22;61.64;101358.59;4983111;28;20109;-47
2021/10/08 02:04:24;;;;;;;3.50;2.92;;;;;;;16.18;61.42;101358.59;4988670;28;20057;-46
2021/10/08 02:06:50;;;;;;;4.22;2.53;;;;;;;16.16;61.54;101355.16;4982235;28;20101;-47
2021/10/08 02:09:17;;;;;;;3.53;2.45;;;;;;;16.13;61.46;101352.53;4978746;28;20541;-47
2021/10/08 02:11:46;;;;;;;4.78;2.72;;;;;;;16.11;61.30;101356.88;4981969;28;20062;-45
2021/10/08 02:14:13;;;;;;;3.70;2.75;;;;;;;16.09;61.10;101353.44;4984871;28;20462;-46
2021/10/08 02:16:42;;;;;;;4.68;2.40;;;;;;;16.06;61.81;101350.81;4984487;28;20121;-47
2021/10/08 02:19:09;;;;;;;4.57;2.15;;;;;;;16.04;61.69;101344.72;4987329;28;20050;-46
2021/10/08 02:21:37;;;;;;;3.65;2.55;;;;;;;16.02;61.71;101352.59;4989035;28;20473;-47
2021/10/08 02:24:06;;;;;;;3.10;2.50;;;;;;;16.00;61.15;101351.72;4981516;28;20133;-45
2021/10/08 02:26:33;;;;;;;3.92;1.92;;;;;;;15.99;61.38;101359.56;4986509;28;20100;-47
2021/10/08 02:28:59;;;;;;;2.83;2.53;;;;;;;15.96;61.95;101367.41;4986687;28;20545;-46
2021/10/08 02:31:26;;;;;;;3.40;2.72;;;;;;;15.93;61.78;101353.47;4983625;28;20046;-46
2021/10/08 02:33:52;;;;;;;3.55;2.97;;;;;;;15.91;61.78;101352.59;4988586;28;20089;-45
2021/10/08 02:36:19;;;;;;;3.72;2.33;;;;;;;15.90;61.46;101352.59;4990432;28;20113;-46
2021/10/08 02:38:46;;;;;;;2.80;1.52;;;;;;;15.87;61.18;101353.47;4978601;28;20453;-46
2021/10/08 02:41:13;;;;;;;4.43;2.25;;;;;;;15.87;61.31;101352.63;4990670;28;20050;-46
2021/10/08 02:43:39;;;;;;;3.40;2.22;;;;;;;15.83;61.01;101354.38;4986712;28;20054;-47
2021/10/08 02:46:07;;;;;;;3.10;2.28;;;;;;;15.81;60.94;101354.38;4966838;28;20054;-46
2021/10/08 02:48:35;;;;;;;6.90;3.85;;;;;;;15.79;61.69;101357.88;4983180;28;20496;-45
2021/10/08 02:51:03;;;;;;;3.45;2.55;;;;;;;15.77;61.29;101355.25;4989702;28;20112;-46
2021/10/08 02:53:32;;;;;;;3.83;1.98;;;;;;;15.75;61.87;101363.97;4992833;28;20406;-46
2021/10/08 02:55:59;;;;;;;4.03;2.85;;;;;;;15.73;61.61;101357.88;4985381;28;20050;-47
2021/10/08 02:58:27;;;;;;;3.28;2.92;;;;;;;15.72;61.81;101370.09;4986359;28;20046;-46
2021/10/08 03:00:53;;;;;;;4.18;2.50;;;;;;;15.69;61.29;101375.31;4980296;28;20144;-47
2021/10/08 03:03:20;;;;;;;2.83;2.35;;;;;;;15.68;61.60;101377.06;4987153;28;20050;-46
2021/10/08 03:05:47;;;;;;;3.00;2.33;;;;;;;15.66;61.80;101375.31;4987487;28;20046;-47
2021/10/08 03:08:13;;;;;;;3.53;2.58;;;;;;;15.63;61.76;101370.09;4986912;28;20046;-48
2021/10/08 03:10:40;;;;;;;5.68;2.20;;;;;;;15.61;61.87;101371.84;4986334;28;20490;-45
2021/10/08 03:13:07;;;;;;;4.70;3.97;;;;;;;15.59;61.34;101379.69;4984839;28;20050;-45
2021/10/08 03:15:34;;;;;;;3.90;3.05;;;;;;;15.58;61.83;101385.81;4987393;28;20106;-46
2021/10/08 03:18:00;;;;;;;3.35;2.60;;;;;;;15.57;61.76;101386.66;4985591;28;20039;-46
2021/10/08 03:20:29;;;;;;;4.65;2.47;;;;;;;15.54;61.79;101391.91;4986443;28;20050;-45
2021/10/08 03:22:56;;;;;;;4.15;2.88;;;;;;;15.52;61.46;101388.41;4983859;28;20055;-45
2021/10/08 03:25:22;;;;;;;3.95;2.15;;;;;;;15.50;61.43;101395.41;4987949;28;20101;-46
2021/10/08 03:27:49;;;;;;;3.47;2.60;;;;;;;15.48;61.54;101397.13;4980922;28;20050;-45
2021/10/08 03:30:15;;;;;;;4.50;2.60;;;;;;;15.46;61.83;101393.63;4984727;28;20101;-46
2021/10/08 03:32:43;;;;;;;9.63;2.63;;;;;;;15.44;61.45;101400.63;4983338;28;20053;-46
2021/10/08 03:35:10;;;;;;;9.73;2.40;;;;;;;15.41;61.49;101402.34;4989308;28;20062;-46
2021/10/08 03:37:46;;;;;;;3.35;1.88;;;;;;;15.39;61.30;101396.28;4987679;28;20053;-46
2021/10/08 03:40:20;;;;;;;2.97;2.30;;;;;;;15.38;61.99;101398.88;4988103;28;20518;-47
2021/10/08 03:42:47;;;;;;;2.97;1.88;;;;;;;15.35;62.13;101397.16;4984504;28;20450;-46
2021/10/08 03:45:15;;;;;;;3.25;2.22;;;;;;;15.34;61.97;101400.63;4978554;28;20116;-46
2021/10/08 03:50:30;;;;;;;2.45;1.15;;;;;;;15.32;61.22;101402.38;4974548;28;20390;-45
2021/10/08 03:52:57;;;;;;;3.67;2.53;;;;;;;15.32;62.21;101406.69;4989493;28;20474;-47
2021/10/08 03:55:24;;;;;;;2.03;1.00;;;;;;;15.31;61.73;101394.53;4989886;28;20449;-45
2021/10/08 03:57:51;;;;;;;3.03;2.63;;;;;;;15.31;61.58;101395.41;4989793;28;20493;-48
2021/10/08 04:00:17;;;;;;;2.88;1.75;;;;;;;15.29;61.96;101398.03;4987122;28;20042;-46
2021/10/08 04:02:44;;;;;;;2.58;2.35;;;;;;;15.29;61.89;101397.13;4988920;28;20046;-46
2021/10/08 04:05:10;;;;;;;2.45;1.33;;;;;;;15.29;62.10;101391.91;4993497;28;20697;-47
2021/10/08 04:07:37;;;;;;;3.20;2.30;;;;;;;15.29;61.98;101402.34;4986360;28;20058;-45
2021/10/08 04:10:04;;;;;;;2.75;2.17;;;;;;;15.29;62.09;101399.75;4988536;28;20098;-46
2021/10/08 04:12:30;;;;;;;2.95;2.63;;;;;;;15.28;62.37;101398.03;4987332;28;20113;-46
2021/10/08 04:14:57;;;;;;;3.10;2.25;;;;;;;15.28;62.01;101387.56;4986446;28;20067;-46
2021/10/08 04:17:24;;;;;;;3.05;2.72;;;;;;;15.28;62.16;101392.81;4984447;28;20144;-45
2021/10/08 04:19:50;;;;;;;4.43;2.83;;;;;;;15.27;62.10;101394.53;4988908;28;20054;-47
2021/10/08 04:22:17;;;;;;;2.85;2.17;;;;;;;15.28;62.21;101390.19;4988745;28;20054;-48
2021/10/08 04:24:43;;;;;;;3.22;1.95;;;;;;;15.28;62.06;101387.56;4987684;28;20113;-47
2021/10/08 04:27:10;;;;;;;2.50;1.90;;;;;;;15.29;62.46;101391.91;4989078;28;20058;-47
2021/10/08 04:29:37;;;;;;;4.20;3.22;;;;;;;15.28;62.11;101392.81;4989489;28;20098;-47
2021/10/08 04:32:03;;;;;;;2.47;2.22;;;;;;;15.27;62.06;101391.06;4988968;28;20101;-46
2021/10/08 04:34:30;;;;;;;3.30;2.65;;;;;;;15.27;62.08;101388.47;4982489;28;20114;-45
2021/10/08 04:36:57;;;;;;;3.95;2.78;;;;;;;15.28;62.19;101390.19;4984100;28;20566;-45
2021/10/08 04:39:23;;;;;;;2.83;1.08;;;;;;;15.28;62.38;101398.03;4986298;28;20419;-47
2021/10/08 04:41:50;;;;;;;2.70;1.90;;;;;;;15.28;62.07;101400.63;4985774;28;20050;-47
2021/10/08 04:44:16;;;;;;;3.05;2.25;;;;;;;15.27;62.25;101398.91;4986348;28;20097;-45
2021/10/08 04:46:43;;;;;;;2.63;2.05;;;;;;;15.26;61.96;101403.25;4974437;28;20102;-49
2021/10/08 04:49:10;;;;;;;2.33;1.70;;;;;;;15.27;61.98;101410.19;4961353;28;20502;-46
2021/10/08 04:51:36;;;;;;;1.95;1.45;;;;;;;15.28;61.74;101411.06;4993847;28;20462;-46
2021/10/08 04:54:03;;;;;;;2.80;2.33;;;;;;;15.27;61.54;101411.94;4985354;28;20101;-45
2021/10/08 04:56:33;;;;;;;2.20;1.85;;;;;;;15.27;62.00;101415.41;4988923;28;20098;-46
2021/10/08 04:59:00;;;;;;;3.47;1.73;;;;;;;15.27;61.84;101415.41;4980609;28;20129;-45
2021/10/08 05:01:28;;;;;;;2.38;1.80;;;;;;;15.27;62.29;101412.78;4981003;28;20102;-46
2021/10/08 05:03:55;;;;;;;2.58;1.33;;;;;;;15.27;62.00;101411.94;4977465;28;20379;-45
2021/10/08 05:06:22;;;;;;;2.85;2.08;;;;;;;15.27;62.58;101417.16;4981950;28;20113;-45
2021/10/08 05:08:48;;;;;;;3.28;2.00;;;;;;;15.27;61.95;101419.78;4971887;28;20043;-49
2021/10/08 05:11:16;;;;;;;2.35;1.67;;;;;;;15.27;62.19;101419.78;4973587;28;20442;-46
2021/10/08 05:13:42;;;;;;;2.70;2.17;;;;;;;15.27;62.13;101425.00;4989633;28;20054;-46
2021/10/08 05:16:09;;;;;;;4.22;2.38;;;;;;;15.27;61.90;101420.63;4978369;28;20054;-46
2021/10/08 05:18:36;;;;;;;3.95;2.10;;;;;;;15.27;62.00;101425.00;4987255;28;20054;-47
2021/10/08 05:21:03;;;;;;;7.38;3.88;;;;;;;15.28;62.16;101416.28;4981705;28;20526;-48
2021/10/08 05:23:30;;;;;;;5.45;3.33;;;;;;;15.29;62.17;101418.03;4983018;28;20186;-47
2021/10/08 05:25:56;;;;;;;2.97;2.67;;;;;;;15.28;62.37;101422.38;4985382;28;20100;-46
2021/10/08 05:28:23;;;;;;;2.47;2.10;;;;;;;15.28;62.03;101431.94;4984445;28;20701;-48
2021/10/08 05:30:49;;;;;;;3.65;2.15;;;;;;;15.28;62.62;101426.72;4995473;28;20136;-46
2021/10/08 05:33:16;;;;;;;4.45;3.35;;;;;;;15.28;62.14;101437.16;4986879;28;20061;-46
2021/10/08 05:35:42;;;;;;;3.35;2.50;;;;;;;15.27;62.85;101435.44;4991060;28;20553;-45
2021/10/08 05:38:09;;;;;;;2.65;2.30;;;;;;;15.27;61.51;101446.72;4984409;28;20047;-45
2021/10/08 05:40:36;;;;;;;3.00;2.28;;;;;;;15.27;62.04;101443.28;4985526;28;20046;-46
2021/10/08 05:43:03;;;;;;;3.25;1.95;;;;;;;15.27;62.65;101451.09;4988440;28;20178;-45
2021/10/08 05:45:30;;;;;;;2.88;2.25;;;;;;;15.26;62.36;101445.00;4986470;28;20157;-49
2021/10/08 05:47:56;;;;;;;3.10;2.47;;;;;;;15.27;62.62;101440.66;4987893;28;20093;-50
2021/10/08 05:50:24;;;;;;;2.88;2.08;;;;;;;15.27;62.10;101441.50;4983477;28;20039;-46
2021/10/08 05:52:50;;;;;;;4.50;2.15;;;;;;;15.27;62.54;101445.88;4987863;28;20054;-48
2021/10/08 05:55:19;;;;;;;2.38;2.00;;;;;;;15.27;62.89;101443.28;4984622;28;20058;-46
2021/10/08 05:57:46;;;;;;;2.15;1.88;;;;;;;15.28;62.41;101447.63;4986670;28;20051;-50
2021/10/08 06:00:12;;;;;;;4.50;2.88;;;;;;;15.28;62.39;101452.81;4985383;28;20109;-46
2021/10/08 06:02:39;;;;;;;2.70;2.17;;;;;;;15.27;62.49;101451.94;4982545;28;20062;-47
2021/10/08 06:05:06;;;;;;;3.22;2.13;;;;;;;15.28;62.16;101453.72;4987905;28;20131;-50
2021/10/08 06:07:32;;;;;;;3.30;2.47;;;;;;;15.28;62.13;101458.06;4983009;28;20062;-48
2021/10/08 06:09:59;;;;;;;3.65;2.47;;;;;;;15.29;62.24;101451.94;4988532;28;20058;-48
2021/10/08 06:12:26;;;;;;;3.17;2.40;;;;;;;15.28;62.34;101453.72;4987586;28;20062;-46
2021/10/08 06:14:52;;;;;;;4.65;3.28;;;;;;;15.29;62.12;101460.66;4985442;28;20062;-45
2021/10/08 06:17:19;;;;;;;2.85;2.17;;;;;;;15.29;62.54;101454.56;4990837;28;20057;-49
2021/10/08 06:19:45;;;;;;;3.15;2.58;;;;;;;15.30;62.25;101458.91;4983376;28;20101;-46
2021/10/08 06:22:12;;;;;;;7.00;4.05;;;;;;;15.31;62.57;101463.28;4990901;28;20085;-46
2021/10/08 06:24:38;;;;;;;3.53;2.47;;;;;;;15.29;62.36;101463.28;4983938;28;20050;-46
2021/10/08 06:27:05;;;;;;;3.00;2.45;;;;;;;15.29;62.20;101465.00;4983473;28;20053;-47
2021/10/08 06:29:32;;;;;;;4.20;3.15;;;;;;;15.30;62.31;101464.13;4984515;28;20054;-45
2021/10/08 06:31:58;;;;;;;2.92;2.33;;;;;;;15.31;62.90;101468.50;4989589;28;20482;-47
2021/10/08 06:34:25;;;;;;;3.67;2.53;;;;;;;15.32;62.25;101482.41;4980218;28;20058;-48
2021/10/08 06:36:51;;;;;;;3.85;2.63;;;;;;;15.32;61.79;101470.22;4992774;28;20159;-46
2021/10/08 06:39:18;;;;;;;3.20;2.47;;;;;;;15.32;62.58;101470.22;4985287;28;20050;-46
2021/10/08 06:41:45;;;;;;;6.70;4.03;;;;;;;15.32;62.78;101472.84;4982384;28;20053;-47
2021/10/08 06:44:11;;;;;;;3.58;2.65;;;;;;;15.33;62.46;101487.63;4979532;28;20046;-46
2021/10/08 06:46:38;;;;;;;6.70;3.88;;;;;;;15.33;63.09;101485.00;4974680;28;20101;-46
2021/10/08 06:49:04;;;;;;;3.45;2.65;;;;;;;15.33;62.41;101487.63;4980632;28;20050;-47
2021/10/08 06:51:31;;;;;;;2.63;1.27;;;;;;;15.35;62.17;101491.13;4979238;28;20402;-49
2021/10/08 06:53:58;;;;;;;4.38;2.78;;;;;;;15.35;62.00;101485.91;4982045;28;20050;-47
2021/10/08 06:56:24;;;;;;;5.38;3.50;;;;;;;15.35;62.55;101490.25;4977841;28;20054;-47
2021/10/08 06:58:51;;;;;;;4.05;2.53;;;;;;;15.35;62.50;101491.13;4980463;28;20097;-45
2021/10/08 07:01:18;;;;;;;3.58;2.67;;;;;;;15.36;62.19;101492.84;4979082;28;20053;-47
2021/10/08 07:03:44;;;;;;;3.42;2.20;;;;;;;15.36;62.04;101492.84;4978648;28;20050;-46
2021/10/08 07:06:11;;;;;;;3.65;2.40;;;;;;;15.36;62.30;101498.06;4979580;28;20054;-46
2021/10/08 07:08:38;;;;;;;3.75;2.60;;;;;;;15.38;62.73;101498.06;4982603;28;20049;-46
2021/10/08 07:11:04;;;;;;;5.70;3.40;;;;;;;15.37;62.77;101502.41;4981187;28;20491;-48
2021/10/08 07:13:31;;;;;;;5.25;3.60;;;;;;;15.38;62.24;101500.69;4980194;28;20446;-47
2021/10/08 07:16:01;;;;;;;3.20;1.70;;;;;;;15.39;62.42;101512.88;4965207;28;20402;-46
2021/10/08 07:18:44;;;;;;;4.80;3.28;;;;;;;15.39;62.56;101503.31;4982320;28;20050;-47
2021/10/08 07:21:12;;;;;;;2.85;2.30;;;;;;;15.40;62.43;101510.25;4983678;28;20050;-46
2021/10/08 07:23:44;;;;;;;3.17;2.50;;;;;;;15.41;62.23;101512.00;4983046;28;20098;-46
2021/10/08 07:26:13;;;;;;;3.70;3.00;;;;;;;15.41;62.55;101516.38;4985778;28;20069;-46
2021/10/08 07:28:40;;;;;;;5.07;2.92;;;;;;;15.41;62.28;101517.22;4971544;28;20109;-47
2021/10/08 07:31:09;;;;;;;4.53;2.58;;;;;;;15.43;62.58;101514.59;4984202;28;20059;-46
2021/10/08 07:33:39;;;;;;;3.95;2.53;;;;;;;15.45;62.63;101522.44;4986822;28;20045;-50
2021/10/08 07:36:06;;;;;;;3.17;2.45;;;;;;;15.45;62.52;101518.09;4983651;28;20054;-47
2021/10/08 07:38:32;;;;;;;4.80;3.08;;;;;;;15.46;62.72;101525.06;4984206;28;20570;-46
2021/10/08 07:40:59;;;;;;;3.83;2.80;;;;;;;15.47;62.38;101520.72;4982325;28;20120;-47
2021/10/08 07:43:26;;;;;;;4.05;2.58;;;;;;;15.48;62.31;101522.44;4989784;28;20109;-47
2021/10/08 07:45:53;;;;;;;4.30;2.85;;;;;;;15.50;63.05;101531.16;4987241;28;20106;-50
2021/10/08 07:48:19;;;;;;;3.53;2.47;;;;;;;15.51;62.57;101531.13;4988110;28;20505;-48
2021/10/08 07:50:46;;;;;;;4.60;2.88;;;;;;;15.53;62.49;101536.38;4984695;28;21376;-47
2021/10/08 07:53:13;;;;;;;3.03;1.85;;;;;;;15.53;62.37;101532.03;4990999;28;20082;-47
2021/10/08 07:55:39;;;;;;;3.50;2.90;;;;;;;15.55;62.46;101537.25;4983353;28;20503;-47
2021/10/08 07:58:06;;;;;;;3.38;3.05;;;;;;;15.58;62.61;101539.88;4984269;28;20062;-46
2021/10/08 08:00:32;;;;;;;2.72;2.38;;;;;;;15.58;62.96;101545.09;4981462;28;20093;-50
2021/10/08 08:02:59;;;;;;;4.07;2.13;;;;;;;15.60;62.04;101543.34;4981221;28;20121;-47
2021/10/08 08:05:26;;;;;;;2.97;2.10;;;;;;;15.62;62.43;101541.63;4982568;28;20572;-48
2021/10/08 08:07:53;;;;;;;5.50;3.08;;;;;;;15.64;62.38;101546.84;4986256;28;20545;-48
2021/10/08 08:10:19;;;;;;;3.90;3.45;;;;;;;15.65;62.89;101546.84;4986558;28;20054;-47
2021/10/08 08:12:46;;;;;;;2.70;2.20;;;;;;;15.69;62.20;101547.69;4990758;28;20057;-47
2021/10/08 08:15:14;;;;;;;2.75;2.22;;;;;;;15.69;62.29;101539.88;4984564;28;20061;-47
2021/10/08 08:17:41;;;;;;;5.50;3.63;;;;;;;15.72;62.76;101544.22;4987601;28;20046;-52
2021/10/08 08:20:08;;;;;;;4.65;1.95;;;;;;;15.73;62.65;101548.56;4986902;28;20533;-48
2021/10/08 08:22:36;;;;;;;6.45;3.97;;;;;;;15.75;63.11;101542.50;4967698;28;20054;-51
2021/10/08 08:25:04;;;;;;;4.35;2.90;;;;;;;15.78;62.82;101546.84;4991068;28;20050;-47
2021/10/08 08:27:30;;;;;;;5.65;3.92;;;;;;;15.79;62.52;101552.06;4987456;28;20046;-48
2021/10/08 08:29:57;;;;;;;2.90;2.13;;;;;;;15.80;62.74;101543.34;4984771;28;20093;-47
2021/10/08 08:32:25;;;;;;;4.68;2.83;;;;;;;15.86;62.91;101549.44;4991511;28;20049;-49
2021/10/08 08:34:52;;;;;;;4.20;2.50;;;;;;;15.87;62.98;101546.81;4985494;28;20054;-47
2021/10/08 08:37:18;;;;;;;4.88;3.13;;;;;;;15.88;62.83;101543.31;4987469;28;20105;-46
2021/10/08 08:39:45;;;;;;;5.75;2.83;;;;;;;15.92;63.53;101549.44;4976059;28;20046;-48
2021/10/08 08:42:15;;;;;;;3.97;2.53;;;;;;;15.93;62.94;101554.66;4986377;28;20046;-48
2021/10/08 08:44:41;;;;;;;3.22;2.70;;;;;;;15.96;62.62;101545.09;4984553;28;20088;-47
2021/10/08 08:47:14;;;;;;;4.03;3.20;;;;;;;15.94;63.48;101543.31;4990346;28;20050;-48
2021/10/08 08:49:40;;;;;;;4.22;2.80;;;;;;;15.99;63.55;101545.97;4987972;28;20058;-48
2021/10/08 08:52:07;;;;;;;2.95;2.53;;;;;;;16.01;62.69;101551.19;4988446;28;20058;-51
2021/10/08 08:54:34;;;;;;;3.05;2.40;;;;;;;16.03;63.36;101552.94;4983331;28;20050;-46
2021/10/08 08:57:08;;;;;;;2.95;2.45;;;;;;;16.03;62.69;101559.91;4982717;28;20051;-49
2021/10/08 08:59:56;;;;;;;3.90;2.95;;;;;;;16.05;63.10;101566.84;4979291;28;20050;-48
2021/10/08 09:02:25;;;;;;;5.10;3.35;;;;;;;16.10;62.94;101571.19;4967211;28;20048;-47
2021/10/08 09:04:53;;;;;;;3.10;2.08;;;;;;;16.12;63.17;101567.75;4966213;28;20093;-48
2021/10/08 09:07:21;;;;;;;3.70;2.63;;;;;;;16.14;63.25;101571.22;4988576;28;20054;-48
2021/10/08 09:09:48;;;;;;;3.22;2.33;;;;;;;16.16;63.11;101566.84;4990484;28;20038;-49
2021/10/08 09:12:15;;;;;;;4.28;3.72;;;;;;;16.21;62.92;101571.22;4983780;28;20042;-50
2021/10/08 09:14:42;;;;;;;3.40;2.63;;;;;;;16.22;63.30;101572.94;4979781;28;20054;-47
2021/10/08 09:17:15;;;;;;;4.55;2.20;;;;;;;16.23;63.82;101566.81;4991276;28;20450;-51
2021/10/08 09:19:54;;;;;;;4.32;2.60;;;;;;;16.25;62.91;101572.94;4989397;28;20048;-49
2021/10/08 09:22:24;;;;;;;3.38;3.08;;;;;;;16.30;62.79;101571.19;4988254;28;20058;-49
2021/10/08 09:24:52;;;;;;;3.60;2.50;;;;;;;16.34;63.12;101561.59;4980739;28;20074;-48
2021/10/08 09:27:20;;;;;;;4.55;2.90;;;;;;;16.37;63.37;101564.19;4981759;28;20114;-50
2021/10/08 09:29:55;;;;;;;3.45;2.45;;;;;;;16.37;63.80;101557.22;4984342;28;20038;-52
2021/10/08 09:32:23;;;;;;;3.15;1.80;;;;;;;16.45;63.39;101565.91;4982346;28;20054;-48
2021/10/08 09:35:05;;;;;;;5.40;3.85;;;;;;;16.48;63.79;101569.41;4975751;28;20047;-48
2021/10/08 09:37:33;;;;;;;4.70;2.75;;;;;;;16.57;63.79;101569.34;4951038;28;20053;-50
2021/10/08 09:40:00;;;;;;;3.78;2.95;;;;;;;16.63;63.12;101579.81;4986445;28;20050;-49
2021/10/08 09:42:35;;;;;;;4.50;2.92;;;;;;;16.65;63.33;101577.19;4966147;28;20050;-50
2021/10/08 09:45:04;;;;;;;2.70;1.88;;;;;;;16.72;62.81;101578.03;4985825;28;20563;-50
2021/10/08 09:47:31;;;;;;;6.95;4.78;;;;;;;16.78;63.26;101581.50;4982283;28;20050;-48
2021/10/08 09:50:13;;;;;;;2.55;2.17;;;;;;;16.81;62.99;101577.97;4986506;28;20053;-49
2021/10/08 09:52:39;;;;;;;2.45;2.03;;;;;;;16.90;62.89;101582.31;4984990;28;20050;-51
2021/10/08 09:55:10;;;;;;;2.40;1.90;;;;;;;16.94;63.08;101584.91;4991507;28;20113;-48
2021/10/08 09:57:55;;;;;;;3.75;2.35;;;;;;;16.99;62.52;101589.25;4984980;28;20093;-48
2021/10/08 10:00:43;;;;;;;3.45;3.13;;;;;;;17.04;62.92;101583.13;4985878;28;20043;-49
2021/10/08 10:03:12;;;;;;;3.80;2.95;;;;;;;17.12;62.82;101582.25;4972344;28;20509;-48
2021/10/08 10:05:39;;;;;;;3.88;2.80;;;;;;;17.15;62.90;101590.94;4980973;28;20688;-48
2021/10/08 10:08:06;;;;;;;3.10;2.58;;;;;;;17.21;62.67;101593.53;4986447;28;20062;-48
2021/10/08 10:10:34;;;;;;;3.17;2.58;;;;;;;17.26;62.22;101596.09;4981458;28;20957;-50
2021/10/08 10:13:03;;;;;;;4.60;3.05;;;;;;;17.30;63.51;101596.97;4991948;28;20936;-48
2021/10/08 10:15:31;;;;;;;5.40;3.55;;;;;;;17.37;62.16;101603.91;4989825;28;20109;-51
2021/10/08 10:18:03;;;;;;;3.03;2.55;;;;;;;17.40;63.21;101609.16;4975049;28;20109;-48
2021/10/08 10:20:33;;;;;;;2.50;2.22;;;;;;;17.44;62.64;101599.50;4986363;28;20672;-53
2021/10/08 10:23:04;;;;;;;5.85;3.35;;;;;;;17.48;63.19;101601.22;4985479;28;20054;-50
2021/10/08 10:25:33;;;;;;;2.20;2.00;;;;;;;17.55;62.61;101596.81;4985607;28;20081;-52
2021/10/08 10:27:59;;;;;;;2.70;2.20;;;;;;;17.59;62.50;101598.50;4986867;28;20046;-49
2021/10/08 10:30:27;;;;;;;3.55;3.25;;;;;;;17.61;61.96;101591.53;4987040;28;20054;-52
2021/10/08 10:32:54;;;;;;;7.40;3.95;;;;;;;17.64;62.54;101591.50;4985077;28;20050;-51
2021/10/08 10:35:39;;;;;;;4.75;2.72;;;;;;;17.66;61.81;101589.72;4990851;28;20050;-49
2021/10/08 10:38:38;;;;;;;3.97;2.85;;;;;;;17.70;61.67;101596.69;4987875;28;20038;-50
2021/10/08 10:41:21;;;;;;;2.60;1.70;;;;;;;17.75;61.56;101598.41;4983384;28;20163;-47
2021/10/08 10:43:51;;;;;;;2.92;2.22;;;;;;;17.81;62.26;101603.59;4988060;28;20046;-48
2021/10/08 10:46:39;;;;;;;3.90;3.10;;;;;;;17.83;62.22;101600.09;4986203;28;20042;-50
2021/10/08 10:49:29;;;;;;;3.03;2.38;;;;;;;17.86;61.91;101593.94;4982755;28;20530;-53
2021/10/08 10:52:11;;;;;;;3.05;2.25;;;;;;;17.91;61.81;101597.41;4989560;28;20125;-49
2021/10/08 10:55:00;;;;;;;6.45;4.15;;;;;;;17.97;61.35;101599.13;4970933;28;20435;-50
2021/10/08 10:57:49;;;;;;;3.65;2.75;;;;;;;18.01;61.69;101599.94;4968009;28;20060;-50
2021/10/08 11:00:22;;;;;;;2.33;2.08;;;;;;;18.05;61.33;101604.28;4970152;28;20038;-49
2021/10/08 11:03:01;;;;;;;4.63;3.15;;;;;;;18.09;61.43;101592.91;4989457;28;20059;-53
2021/10/08 11:05:29;;;;;;;3.67;3.33;;;;;;;18.17;61.23;101600.72;4989173;28;20046;-52
2021/10/08 11:08:15;;;;;;;3.10;2.08;;;;;;;18.17;60.95;101601.56;4986306;28;20050;-48
2021/10/08 11:10:45;;;;;;;4.18;2.97;;;;;;;18.25;61.86;101598.88;4988515;28;20105;-50
2021/10/08 11:13:31;;;;;;;2.75;2.28;;;;;;;18.26;60.98;101602.34;4982813;28;20050;-48
2021/10/08 11:16:04;;;;;;;4.10;3.47;;;;;;;18.31;61.04;101592.69;4983070;28;20050;-49
2021/10/08 11:18:49;;;;;;;2.85;2.42;;;;;;;18.34;61.11;101595.28;4991265;28;20145;-50
2021/10/08 11:21:56;;;;;;;3.50;2.28;;;;;;;18.37;61.40;101597.84;4983199;28;20105;-48
2021/10/08 11:24:23;;;;;;;4.65;2.60;;;;;;;18.45;61.01;101593.44;4960952;28;20619;-49
2021/10/08 11:26:51;;;;;;;3.13;2.40;;;;;;;18.49;60.99;101592.50;4985777;28;20042;-51
2021/10/08 11:29:18;;;;;;;4.68;3.25;;;;;;;18.55;61.44;101590.69;4981794;28;20051;-49
2021/10/08 11:31:44;;;;;;;5.55;3.75;;;;;;;18.60;61.49;101589.75;4984191;28;20050;-50
2021/10/08 11:34:13;;;;;;;2.80;2.47;;;;;;;18.65;61.57;101594.94;4986808;28;20113;-49